sensor_id;sensor_type;location;lat;lon;timestamp;temperature;humidity
65854;DHT22;52627;48.838;2.402;2022-07-05T00:01:49;20.09;50.58
65854;DHT22;52627;48.838;2.402;2022-07-05T00:04:17;20.07;50.66
65854;DHT22;52627;48.838;2.402;2022-07-05T00:06:44;20.02;50.68
65854;DHT22;52627;48.838;2.402;2022-07-05T00:09:30;19.99;50.71
65854;DHT22;52627;48.838;2.402;2022-07-05T00:11:58;19.96;50.80
65854;DHT22;52627;48.838;2.402;2022-07-05T00:14:25;19.94;50.83
65854;DHT22;52627;48.838;2.402;2022-07-05T00:16:53;19.90;50.93
65854;DHT22;52627;48.838;2.402;2022-07-05T00:19:21;19.87;50.98
65854;DHT22;52627;48.838;2.402;2022-07-05T00:21:48;19.85;51.07
65854;DHT22;52627;48.838;2.402;2022-07-05T00:24:16;19.82;51.12
65854;DHT22;52627;48.838;2.402;2022-07-05T00:26:43;19.79;51.20
65854;DHT22;52627;48.838;2.402;2022-07-05T00:29:11;19.77;51.27
65854;DHT22;52627;48.838;2.402;2022-07-05T00:31:38;19.76;51.33
65854;DHT22;52627;48.838;2.402;2022-07-05T00:34:06;19.74;51.33
65854;DHT22;52627;48.838;2.402;2022-07-05T00:36:33;19.73;51.35
65854;DHT22;52627;48.838;2.402;2022-07-05T00:39:02;19.70;51.46
65854;DHT22;52627;48.838;2.402;2022-07-05T00:41:31;19.66;51.51
65854;DHT22;52627;48.838;2.402;2022-07-05T00:44:00;19.64;51.56
65854;DHT22;52627;48.838;2.402;2022-07-05T00:46:30;19.60;51.65
65854;DHT22;52627;48.838;2.402;2022-07-05T00:48:59;19.56;51.66
65854;DHT22;52627;48.838;2.402;2022-07-05T00:51:32;19.53;51.70
65854;DHT22;52627;48.838;2.402;2022-07-05T00:54:22;19.52;51.81
65854;DHT22;52627;48.838;2.402;2022-07-05T00:56:49;19.48;51.94
65854;DHT22;52627;48.838;2.402;2022-07-05T00:59:24;19.42;51.98
65854;DHT22;52627;48.838;2.402;2022-07-05T01:01:53;19.38;52.01
65854;DHT22;52627;48.838;2.402;2022-07-05T01:04:21;19.35;52.09
65854;DHT22;52627;48.838;2.402;2022-07-05T01:06:49;19.32;52.17
65854;DHT22;52627;48.838;2.402;2022-07-05T01:09:20;19.29;52.28
65854;DHT22;52627;48.838;2.402;2022-07-05T01:11:50;19.24;52.41
65854;DHT22;52627;48.838;2.402;2022-07-05T01:14:19;19.20;52.52
65854;DHT22;52627;48.838;2.402;2022-07-05T01:16:49;19.18;52.58
65854;DHT22;52627;48.838;2.402;2022-07-05T01:19:20;19.15;52.67
65854;DHT22;52627;48.838;2.402;2022-07-05T01:21:48;19.11;52.76
65854;DHT22;52627;48.838;2.402;2022-07-05T01:24:16;19.06;52.86
65854;DHT22;52627;48.838;2.402;2022-07-05T01:26:46;19.02;52.92
65854;DHT22;52627;48.838;2.402;2022-07-05T01:29:16;19.00;53.01
65854;DHT22;52627;48.838;2.402;2022-07-05T01:31:44;18.96;53.10
65854;DHT22;52627;48.838;2.402;2022-07-05T01:34:12;18.91;53.18
65854;DHT22;52627;48.838;2.402;2022-07-05T01:36:40;18.88;53.32
65854;DHT22;52627;48.838;2.402;2022-07-05T01:39:07;18.82;53.39
65854;DHT22;52627;48.838;2.402;2022-07-05T01:41:35;18.77;53.54
65854;DHT22;52627;48.838;2.402;2022-07-05T01:44:03;18.73;53.61
65854;DHT22;52627;48.838;2.402;2022-07-05T01:46:32;18.69;53.70
65854;DHT22;52627;48.838;2.402;2022-07-05T01:49:04;18.67;53.80
65854;DHT22;52627;48.838;2.402;2022-07-05T01:51:51;18.63;53.92
65854;DHT22;52627;48.838;2.402;2022-07-05T01:54:29;18.59;53.99
65854;DHT22;52627;48.838;2.402;2022-07-05T01:56:57;18.56;54.10
65854;DHT22;52627;48.838;2.402;2022-07-05T01:59:25;18.50;54.20
65854;DHT22;52627;48.838;2.402;2022-07-05T02:01:55;18.48;54.32
65854;DHT22;52627;48.838;2.402;2022-07-05T02:04:22;18.45;54.45
65854;DHT22;52627;48.838;2.402;2022-07-05T02:06:50;18.42;54.51
65854;DHT22;52627;48.838;2.402;2022-07-05T02:09:18;18.40;54.54
65854;DHT22;52627;48.838;2.402;2022-07-05T02:11:45;18.35;54.54
65854;DHT22;52627;48.838;2.402;2022-07-05T02:14:13;18.33;54.55
65854;DHT22;52627;48.838;2.402;2022-07-05T02:16:40;18.28;54.60
65854;DHT22;52627;48.838;2.402;2022-07-05T02:19:08;18.24;54.61
65854;DHT22;52627;48.838;2.402;2022-07-05T02:21:36;18.21;54.68
65854;DHT22;52627;48.838;2.402;2022-07-05T02:24:03;18.18;54.87
65854;DHT22;52627;48.838;2.402;2022-07-05T02:26:33;18.14;55.09
65854;DHT22;52627;48.838;2.402;2022-07-05T02:29:02;18.13;55.37
65854;DHT22;52627;48.838;2.402;2022-07-05T02:31:31;18.09;55.63
65854;DHT22;52627;48.838;2.402;2022-07-05T02:33:59;18.05;55.88
65854;DHT22;52627;48.838;2.402;2022-07-05T02:36:26;18.02;56.19
65854;DHT22;52627;48.838;2.402;2022-07-05T02:38:54;17.98;56.50
65854;DHT22;52627;48.838;2.402;2022-07-05T02:41:22;17.95;56.81
65854;DHT22;52627;48.838;2.402;2022-07-05T02:43:49;17.90;56.98
65854;DHT22;52627;48.838;2.402;2022-07-05T02:46:18;17.87;57.17
65854;DHT22;52627;48.838;2.402;2022-07-05T02:48:46;17.83;57.36
65854;DHT22;52627;48.838;2.402;2022-07-05T02:51:13;17.83;57.59
65854;DHT22;52627;48.838;2.402;2022-07-05T02:53:43;17.81;57.72
65854;DHT22;52627;48.838;2.402;2022-07-05T02:56:11;17.80;57.82
65854;DHT22;52627;48.838;2.402;2022-07-05T02:58:38;17.79;58.02
65854;DHT22;52627;48.838;2.402;2022-07-05T03:01:06;17.79;58.19
65854;DHT22;52627;48.838;2.402;2022-07-05T03:03:34;17.80;58.32
65854;DHT22;52627;48.838;2.402;2022-07-05T03:06:01;17.79;58.42
65854;DHT22;52627;48.838;2.402;2022-07-05T03:08:29;17.79;58.58
65854;DHT22;52627;48.838;2.402;2022-07-05T03:10:57;17.76;58.89
65854;DHT22;52627;48.838;2.402;2022-07-05T03:13:24;17.73;59.02
65854;DHT22;52627;48.838;2.402;2022-07-05T03:15:52;17.71;59.13
65854;DHT22;52627;48.838;2.402;2022-07-05T03:18:19;17.70;59.27
65854;DHT22;52627;48.838;2.402;2022-07-05T03:20:47;17.68;59.35
65854;DHT22;52627;48.838;2.402;2022-07-05T03:23:15;17.67;59.44
65854;DHT22;52627;48.838;2.402;2022-07-05T03:25:42;17.67;59.54
65854;DHT22;52627;48.838;2.402;2022-07-05T03:28:10;17.68;59.66
65854;DHT22;52627;48.838;2.402;2022-07-05T03:30:38;17.67;59.77
65854;DHT22;52627;48.838;2.402;2022-07-05T03:33:05;17.65;59.86
65854;DHT22;52627;48.838;2.402;2022-07-05T03:35:33;17.62;60.05
65854;DHT22;52627;48.838;2.402;2022-07-05T03:38:00;17.60;60.20
65854;DHT22;52627;48.838;2.402;2022-07-05T03:40:28;17.59;60.27
65854;DHT22;52627;48.838;2.402;2022-07-05T03:42:55;17.60;60.38
65854;DHT22;52627;48.838;2.402;2022-07-05T03:45:23;17.58;60.46
65854;DHT22;52627;48.838;2.402;2022-07-05T03:47:51;17.56;60.56
65854;DHT22;52627;48.838;2.402;2022-07-05T03:50:18;17.56;60.68
65854;DHT22;52627;48.838;2.402;2022-07-05T03:52:46;17.55;60.75
65854;DHT22;52627;48.838;2.402;2022-07-05T03:55:13;17.54;60.89
65854;DHT22;52627;48.838;2.402;2022-07-05T03:57:41;17.53;60.92
65854;DHT22;52627;48.838;2.402;2022-07-05T04:00:09;17.51;61.03
65854;DHT22;52627;48.838;2.402;2022-07-05T04:02:37;17.51;61.09
65854;DHT22;52627;48.838;2.402;2022-07-05T04:05:05;17.51;61.20
65854;DHT22;52627;48.838;2.402;2022-07-05T04:07:33;17.50;61.31
65854;DHT22;52627;48.838;2.402;2022-07-05T04:10:01;17.48;61.42
65854;DHT22;52627;48.838;2.402;2022-07-05T04:12:29;17.47;61.48
65854;DHT22;52627;48.838;2.402;2022-07-05T04:14:56;17.47;61.56
65854;DHT22;52627;48.838;2.402;2022-07-05T04:17:24;17.45;61.64
65854;DHT22;52627;48.838;2.402;2022-07-05T04:19:52;17.44;61.75
65854;DHT22;52627;48.838;2.402;2022-07-05T04:22:19;17.43;61.87
65854;DHT22;52627;48.838;2.402;2022-07-05T04:24:47;17.42;61.96
65854;DHT22;52627;48.838;2.402;2022-07-05T04:27:33;17.43;62.00
65854;DHT22;52627;48.838;2.402;2022-07-05T04:30:01;17.45;62.00
65854;DHT22;52627;48.838;2.402;2022-07-05T04:32:28;17.47;62.16
65854;DHT22;52627;48.838;2.402;2022-07-05T04:34:56;17.47;62.20
65854;DHT22;52627;48.838;2.402;2022-07-05T04:37:24;17.48;62.20
65854;DHT22;52627;48.838;2.402;2022-07-05T04:39:51;17.50;62.29
65854;DHT22;52627;48.838;2.402;2022-07-05T04:42:19;17.52;62.29
65854;DHT22;52627;48.838;2.402;2022-07-05T04:44:47;17.52;62.36
65854;DHT22;52627;48.838;2.402;2022-07-05T04:47:14;17.52;62.40
65854;DHT22;52627;48.838;2.402;2022-07-05T04:49:42;17.55;62.48
65854;DHT22;52627;48.838;2.402;2022-07-05T04:52:10;17.58;62.49
65854;DHT22;52627;48.838;2.402;2022-07-05T04:54:37;17.59;62.49
65854;DHT22;52627;48.838;2.402;2022-07-05T04:57:05;17.60;62.51
65854;DHT22;52627;48.838;2.402;2022-07-05T04:59:33;17.62;62.59
65854;DHT22;52627;48.838;2.402;2022-07-05T05:02:00;17.63;62.60
65854;DHT22;52627;48.838;2.402;2022-07-05T05:04:28;17.65;62.60
65854;DHT22;52627;48.838;2.402;2022-07-05T05:06:56;17.69;62.62
65854;DHT22;52627;48.838;2.402;2022-07-05T05:09:24;17.72;62.67
65854;DHT22;52627;48.838;2.402;2022-07-05T05:11:51;17.75;62.69
65854;DHT22;52627;48.838;2.402;2022-07-05T05:14:19;17.80;62.69
65854;DHT22;52627;48.838;2.402;2022-07-05T05:16:46;17.83;62.70
65854;DHT22;52627;48.838;2.402;2022-07-05T05:19:14;17.86;62.71
65854;DHT22;52627;48.838;2.402;2022-07-05T05:21:42;17.92;62.73
65854;DHT22;52627;48.838;2.402;2022-07-05T05:24:09;17.97;62.70
65854;DHT22;52627;48.838;2.402;2022-07-05T05:26:37;18.00;62.70
65854;DHT22;52627;48.838;2.402;2022-07-05T05:29:04;18.04;62.70
65854;DHT22;52627;48.838;2.402;2022-07-05T05:31:32;18.07;62.70
65854;DHT22;52627;48.838;2.402;2022-07-05T05:33:59;18.12;62.67
65854;DHT22;52627;48.838;2.402;2022-07-05T05:36:27;18.15;62.60
65854;DHT22;52627;48.838;2.402;2022-07-05T05:38:54;18.19;62.60
65854;DHT22;52627;48.838;2.402;2022-07-05T05:41:22;18.23;62.56
65854;DHT22;52627;48.838;2.402;2022-07-05T05:43:50;18.27;62.53
65854;DHT22;52627;48.838;2.402;2022-07-05T05:46:17;18.32;62.48
65854;DHT22;52627;48.838;2.402;2022-07-05T05:48:45;18.38;62.42
65854;DHT22;52627;48.838;2.402;2022-07-05T05:51:12;18.43;62.41
65854;DHT22;52627;48.838;2.402;2022-07-05T05:53:40;18.48;62.41
65854;DHT22;52627;48.838;2.402;2022-07-05T05:56:07;18.55;62.39
65854;DHT22;52627;48.838;2.402;2022-07-05T05:58:35;18.60;62.28
65854;DHT22;52627;48.838;2.402;2022-07-05T06:01:09;18.63;62.23
65854;DHT22;52627;48.838;2.402;2022-07-05T06:03:37;18.65;62.20
65854;DHT22;52627;48.838;2.402;2022-07-05T06:06:04;18.66;62.15
65854;DHT22;52627;48.838;2.402;2022-07-05T06:08:32;18.68;62.10
65854;DHT22;52627;48.838;2.402;2022-07-05T06:11:00;18.78;62.08
65854;DHT22;52627;48.838;2.402;2022-07-05T06:13:31;18.86;61.97
65854;DHT22;52627;48.838;2.402;2022-07-05T06:15:58;18.97;61.89
65854;DHT22;52627;48.838;2.402;2022-07-05T06:18:26;19.09;61.78
65854;DHT22;52627;48.838;2.402;2022-07-05T06:20:54;19.27;61.64
65854;DHT22;52627;48.838;2.402;2022-07-05T06:23:21;19.46;61.44
65854;DHT22;52627;48.838;2.402;2022-07-05T06:25:49;19.63;61.29
65854;DHT22;52627;48.838;2.402;2022-07-05T06:28:16;19.84;61.11
65854;DHT22;52627;48.838;2.402;2022-07-05T06:30:44;20.13;60.86
65854;DHT22;52627;48.838;2.402;2022-07-05T06:33:11;20.42;60.48
65854;DHT22;52627;48.838;2.402;2022-07-05T06:35:39;20.73;60.19
65854;DHT22;52627;48.838;2.402;2022-07-05T06:38:07;21.00;59.78
65854;DHT22;52627;48.838;2.402;2022-07-05T06:40:37;21.27;59.50
65854;DHT22;52627;48.838;2.402;2022-07-05T06:43:10;21.60;59.03
65854;DHT22;52627;48.838;2.402;2022-07-05T06:45:41;21.94;58.58
65854;DHT22;52627;48.838;2.402;2022-07-05T06:48:09;22.29;58.07
65854;DHT22;52627;48.838;2.402;2022-07-05T06:50:39;22.64;57.54
65854;DHT22;52627;48.838;2.402;2022-07-05T06:53:09;22.95;56.93
65854;DHT22;52627;48.838;2.402;2022-07-05T06:55:38;23.28;56.38
65854;DHT22;52627;48.838;2.402;2022-07-05T06:58:17;23.75;55.88
65854;DHT22;52627;48.838;2.402;2022-07-05T07:00:45;24.24;55.36
65854;DHT22;52627;48.838;2.402;2022-07-05T07:03:32;24.89;54.64
65854;DHT22;52627;48.838;2.402;2022-07-05T07:06:20;25.59;53.85
65854;DHT22;52627;48.838;2.402;2022-07-05T07:08:48;26.19;53.02
65854;DHT22;52627;48.838;2.402;2022-07-05T07:11:33;26.79;52.16
65854;DHT22;52627;48.838;2.402;2022-07-05T07:14:01;27.31;51.23
65854;DHT22;52627;48.838;2.402;2022-07-05T07:16:29;27.70;50.32
65854;DHT22;52627;48.838;2.402;2022-07-05T07:18:57;28.08;49.41
65854;DHT22;52627;48.838;2.402;2022-07-05T07:21:41;28.55;48.47
65854;DHT22;52627;48.838;2.402;2022-07-05T07:24:10;29.00;47.50
65854;DHT22;52627;48.838;2.402;2022-07-05T07:26:38;29.42;46.49
65854;DHT22;52627;48.838;2.402;2022-07-05T07:29:25;29.74;45.38
65854;DHT22;52627;48.838;2.402;2022-07-05T07:31:54;29.94;44.62
65854;DHT22;52627;48.838;2.402;2022-07-05T07:34:22;30.17;43.71
65854;DHT22;52627;48.838;2.402;2022-07-05T07:36:51;30.45;42.93
65854;DHT22;52627;48.838;2.402;2022-07-05T07:39:19;30.83;42.05
65854;DHT22;52627;48.838;2.402;2022-07-05T07:41:45;31.21;41.31
65854;DHT22;52627;48.838;2.402;2022-07-05T07:44:13;31.55;40.57
65854;DHT22;52627;48.838;2.402;2022-07-05T07:46:42;31.77;39.76
65854;DHT22;52627;48.838;2.402;2022-07-05T07:49:10;31.92;39.09
65854;DHT22;52627;48.838;2.402;2022-07-05T07:51:40;32.11;38.37
65854;DHT22;52627;48.838;2.402;2022-07-05T07:54:08;32.34;37.76
65854;DHT22;52627;48.838;2.402;2022-07-05T07:56:37;32.59;37.20
65854;DHT22;52627;48.838;2.402;2022-07-05T07:59:05;32.87;36.62
65854;DHT22;52627;48.838;2.402;2022-07-05T08:01:32;33.12;36.06
65854;DHT22;52627;48.838;2.402;2022-07-05T08:04:06;33.30;35.60
65854;DHT22;52627;48.838;2.402;2022-07-05T08:06:33;33.59;35.05
65854;DHT22;52627;48.838;2.402;2022-07-05T08:09:01;33.76;34.59
65854;DHT22;52627;48.838;2.402;2022-07-05T08:11:29;34.03;34.19
65854;DHT22;52627;48.838;2.402;2022-07-05T08:13:57;34.30;33.63
65854;DHT22;52627;48.838;2.402;2022-07-05T08:16:24;34.54;33.19
65854;DHT22;52627;48.838;2.402;2022-07-05T08:18:52;34.63;32.62
65854;DHT22;52627;48.838;2.402;2022-07-05T08:21:38;34.83;32.24
65854;DHT22;52627;48.838;2.402;2022-07-05T08:26:36;35.22;31.32
65854;DHT22;52627;48.838;2.402;2022-07-05T08:29:06;35.27;30.98
65854;DHT22;52627;48.838;2.402;2022-07-05T08:31:38;35.26;30.63
65854;DHT22;52627;48.838;2.402;2022-07-05T08:34:12;35.31;30.42
65854;DHT22;52627;48.838;2.402;2022-07-05T08:36:40;35.40;30.01
65854;DHT22;52627;48.838;2.402;2022-07-05T08:39:09;35.50;29.70
65854;DHT22;52627;48.838;2.402;2022-07-05T08:41:37;35.61;29.44
65854;DHT22;52627;48.838;2.402;2022-07-05T08:44:08;35.68;29.17
65854;DHT22;52627;48.838;2.402;2022-07-05T08:46:38;35.57;28.89
65854;DHT22;52627;48.838;2.402;2022-07-05T08:49:07;35.42;28.69
65854;DHT22;52627;48.838;2.402;2022-07-05T08:51:39;35.35;28.55
65854;DHT22;52627;48.838;2.402;2022-07-05T08:54:10;35.38;28.36
65854;DHT22;52627;48.838;2.402;2022-07-05T08:56:43;35.50;28.17
65854;DHT22;52627;48.838;2.402;2022-07-05T08:59:31;35.52;28.06
65854;DHT22;52627;48.838;2.402;2022-07-05T09:01:59;35.67;27.92
65854;DHT22;52627;48.838;2.402;2022-07-05T09:04:33;35.87;27.71
65854;DHT22;52627;48.838;2.402;2022-07-05T09:07:15;35.97;27.42
65854;DHT22;52627;48.838;2.402;2022-07-05T09:09:46;36.01;27.35
65854;DHT22;52627;48.838;2.402;2022-07-05T09:12:15;36.09;27.22
65854;DHT22;52627;48.838;2.402;2022-07-05T09:14:53;36.20;27.05
65854;DHT22;52627;48.838;2.402;2022-07-05T09:17:24;36.34;26.81
65854;DHT22;52627;48.838;2.402;2022-07-05T09:20:05;36.27;26.68
65854;DHT22;52627;48.838;2.402;2022-07-05T09:25:19;36.32;26.44
65854;DHT22;52627;48.838;2.402;2022-07-05T09:27:52;36.19;26.25
65854;DHT22;52627;48.838;2.402;2022-07-05T09:30:33;36.06;26.18
65854;DHT22;52627;48.838;2.402;2022-07-05T09:35:39;35.98;26.04
65854;DHT22;52627;48.838;2.402;2022-07-05T09:38:16;36.06;25.88
65854;DHT22;52627;48.838;2.402;2022-07-05T09:40:58;36.09;25.64
65854;DHT22;52627;48.838;2.402;2022-07-05T09:43:29;36.01;25.61
65854;DHT22;52627;48.838;2.402;2022-07-05T09:45:58;35.96;25.60
65854;DHT22;52627;48.838;2.402;2022-07-05T09:48:31;36.00;25.62
65854;DHT22;52627;48.838;2.402;2022-07-05T09:51:09;35.97;25.52
65854;DHT22;52627;48.838;2.402;2022-07-05T09:53:59;35.93;25.48
65854;DHT22;52627;48.838;2.402;2022-07-05T09:56:46;35.95;25.50
65854;DHT22;52627;48.838;2.402;2022-07-05T09:59:17;35.99;25.41
65854;DHT22;52627;48.838;2.402;2022-07-05T10:01:48;36.04;25.15
65854;DHT22;52627;48.838;2.402;2022-07-05T10:04:17;36.07;25.02
65854;DHT22;52627;48.838;2.402;2022-07-05T10:06:45;35.99;25.04
65854;DHT22;52627;48.838;2.402;2022-07-05T10:09:13;35.71;25.04
65854;DHT22;52627;48.838;2.402;2022-07-05T10:11:43;35.50;25.20
65854;DHT22;52627;48.838;2.402;2022-07-05T10:14:19;35.39;25.19
65854;DHT22;52627;48.838;2.402;2022-07-05T10:17:06;35.32;25.28
65854;DHT22;52627;48.838;2.402;2022-07-05T10:19:38;35.31;25.15
65854;DHT22;52627;48.838;2.402;2022-07-05T10:22:14;35.21;25.29
65854;DHT22;52627;48.838;2.402;2022-07-05T10:24:45;35.19;25.39
65854;DHT22;52627;48.838;2.402;2022-07-05T10:27:14;35.16;25.39
65854;DHT22;52627;48.838;2.402;2022-07-05T10:29:43;35.09;25.47
65854;DHT22;52627;48.838;2.402;2022-07-05T10:32:12;35.06;25.37
65854;DHT22;52627;48.838;2.402;2022-07-05T10:34:42;34.84;25.10
65854;DHT22;52627;48.838;2.402;2022-07-05T10:37:23;34.63;25.18
65854;DHT22;52627;48.838;2.402;2022-07-05T10:39:56;34.65;25.19
65854;DHT22;52627;48.838;2.402;2022-07-05T10:42:48;34.56;25.24
65854;DHT22;52627;48.838;2.402;2022-07-05T10:58:41;33.79;25.62
65854;DHT22;52627;48.838;2.402;2022-07-05T11:03:54;33.71;25.85
65854;DHT22;52627;48.838;2.402;2022-07-05T11:11:39;34.07;26.24
65854;DHT22;52627;48.838;2.402;2022-07-05T11:14:32;34.17;26.31
65854;DHT22;52627;48.838;2.402;2022-07-05T11:22:27;34.10;26.30
65854;DHT22;52627;48.838;2.402;2022-07-05T11:24:56;34.16;26.27
65854;DHT22;52627;48.838;2.402;2022-07-05T11:27:24;34.16;26.23
65854;DHT22;52627;48.838;2.402;2022-07-05T11:35:17;33.89;26.36
65854;DHT22;52627;48.838;2.402;2022-07-05T11:38:05;33.97;26.30
65854;DHT22;52627;48.838;2.402;2022-07-05T11:40:54;33.97;26.21
65854;DHT22;52627;48.838;2.402;2022-07-05T11:43:26;33.95;26.20
65854;DHT22;52627;48.838;2.402;2022-07-05T11:45:58;33.95;26.23
65854;DHT22;52627;48.838;2.402;2022-07-05T11:48:27;33.99;26.20
65854;DHT22;52627;48.838;2.402;2022-07-05T11:50:55;33.97;26.23
65854;DHT22;52627;48.838;2.402;2022-07-05T11:53:27;33.97;26.24
65854;DHT22;52627;48.838;2.402;2022-07-05T11:56:17;33.94;26.24
65854;DHT22;52627;48.838;2.402;2022-07-05T11:58:45;33.79;26.29
65854;DHT22;52627;48.838;2.402;2022-07-05T12:01:13;33.53;26.38
65854;DHT22;52627;48.838;2.402;2022-07-05T12:03:40;33.33;26.52
65854;DHT22;52627;48.838;2.402;2022-07-05T12:06:11;33.32;26.64
65854;DHT22;52627;48.838;2.402;2022-07-05T12:08:45;33.06;26.87
65854;DHT22;52627;48.838;2.402;2022-07-05T12:11:13;32.76;27.04
65854;DHT22;52627;48.838;2.402;2022-07-05T12:13:59;32.78;27.10
65854;DHT22;52627;48.838;2.402;2022-07-05T12:16:26;32.83;27.09
65854;DHT22;52627;48.838;2.402;2022-07-05T12:18:55;32.87;27.24
65854;DHT22;52627;48.838;2.402;2022-07-05T12:21:23;32.84;27.27
65854;DHT22;52627;48.838;2.402;2022-07-05T12:23:51;32.73;27.26
65854;DHT22;52627;48.838;2.402;2022-07-05T12:26:20;32.67;27.41
65854;DHT22;52627;48.838;2.402;2022-07-05T12:28:49;32.42;27.48
65854;DHT22;52627;48.838;2.402;2022-07-05T12:33:50;32.18;27.63
65854;DHT22;52627;48.838;2.402;2022-07-05T12:36:20;32.27;27.68
65854;DHT22;52627;48.838;2.402;2022-07-05T12:38:58;32.43;27.75
65854;DHT22;52627;48.838;2.402;2022-07-05T12:41:26;32.51;27.67
65854;DHT22;52627;48.838;2.402;2022-07-05T12:43:54;32.58;27.73
65854;DHT22;52627;48.838;2.402;2022-07-05T12:46:36;32.65;27.70
65854;DHT22;52627;48.838;2.402;2022-07-05T12:49:09;32.74;27.71
65854;DHT22;52627;48.838;2.402;2022-07-05T12:51:40;32.85;27.75
65854;DHT22;52627;48.838;2.402;2022-07-05T12:54:20;33.07;27.74
65854;DHT22;52627;48.838;2.402;2022-07-05T12:57:08;33.04;27.71
65854;DHT22;52627;48.838;2.402;2022-07-05T13:00:01;32.73;27.78
65854;DHT22;52627;48.838;2.402;2022-07-05T13:02:39;32.42;27.75
65854;DHT22;52627;48.838;2.402;2022-07-05T13:05:10;32.17;27.80
65854;DHT22;52627;48.838;2.402;2022-07-05T13:07:50;32.28;27.70
65854;DHT22;52627;48.838;2.402;2022-07-05T13:10:21;32.46;27.76
65854;DHT22;52627;48.838;2.402;2022-07-05T13:12:51;32.72;27.81
65854;DHT22;52627;48.838;2.402;2022-07-05T13:15:19;32.86;27.69
65854;DHT22;52627;48.838;2.402;2022-07-05T13:17:47;33.01;27.63
65854;DHT22;52627;48.838;2.402;2022-07-05T13:20:15;33.15;27.51
65854;DHT22;52627;48.838;2.402;2022-07-05T13:22:46;33.21;27.37
65854;DHT22;52627;48.838;2.402;2022-07-05T13:25:14;33.29;27.27
65854;DHT22;52627;48.838;2.402;2022-07-05T13:27:42;33.47;27.06
65854;DHT22;52627;48.838;2.402;2022-07-05T13:30:10;33.60;26.94
65854;DHT22;52627;48.838;2.402;2022-07-05T13:32:38;33.82;26.81
65854;DHT22;52627;48.838;2.402;2022-07-05T13:35:06;33.98;26.85
65854;DHT22;52627;48.838;2.402;2022-07-05T13:37:34;33.82;26.87
65854;DHT22;52627;48.838;2.402;2022-07-05T13:40:02;33.71;26.73
65854;DHT22;52627;48.838;2.402;2022-07-05T13:42:30;33.52;26.67
65854;DHT22;52627;48.838;2.402;2022-07-05T13:44:57;33.11;26.70
65854;DHT22;52627;48.838;2.402;2022-07-05T13:47:25;32.79;26.86
65854;DHT22;52627;48.838;2.402;2022-07-05T13:49:53;32.52;27.10
65854;DHT22;52627;48.838;2.402;2022-07-05T13:52:40;32.47;27.32
65854;DHT22;52627;48.838;2.402;2022-07-05T13:55:08;32.72;27.16
65854;DHT22;52627;48.838;2.402;2022-07-05T13:57:36;32.95;27.06
65854;DHT22;52627;48.838;2.402;2022-07-05T14:00:04;32.88;27.26
65854;DHT22;52627;48.838;2.402;2022-07-05T14:02:33;32.64;27.84
65854;DHT22;52627;48.838;2.402;2022-07-05T14:05:00;32.41;27.79
65854;DHT22;52627;48.838;2.402;2022-07-05T14:07:28;32.16;27.78
65854;DHT22;52627;48.838;2.402;2022-07-05T14:09:55;31.88;27.69
65854;DHT22;52627;48.838;2.402;2022-07-05T14:12:23;31.66;27.73
65854;DHT22;52627;48.838;2.402;2022-07-05T14:14:51;31.52;27.69
65854;DHT22;52627;48.838;2.402;2022-07-05T14:17:18;31.38;27.58
65854;DHT22;52627;48.838;2.402;2022-07-05T14:19:46;31.16;27.54
65854;DHT22;52627;48.838;2.402;2022-07-05T14:22:14;31.05;27.73
65854;DHT22;52627;48.838;2.402;2022-07-05T14:24:41;30.99;27.93
65854;DHT22;52627;48.838;2.402;2022-07-05T14:27:09;30.96;28.09
65854;DHT22;52627;48.838;2.402;2022-07-05T14:29:36;30.92;28.15
65854;DHT22;52627;48.838;2.402;2022-07-05T14:32:05;30.81;28.08
65854;DHT22;52627;48.838;2.402;2022-07-05T14:34:33;30.67;28.01
65854;DHT22;52627;48.838;2.402;2022-07-05T14:37:01;30.52;28.03
65854;DHT22;52627;48.838;2.402;2022-07-05T14:39:29;30.39;28.10
65854;DHT22;52627;48.838;2.402;2022-07-05T14:41:56;30.27;28.17
65854;DHT22;52627;48.838;2.402;2022-07-05T14:44:24;30.17;28.11
65854;DHT22;52627;48.838;2.402;2022-07-05T14:46:51;30.13;28.19
65854;DHT22;52627;48.838;2.402;2022-07-05T14:49:19;30.13;28.30
65854;DHT22;52627;48.838;2.402;2022-07-05T14:51:46;30.16;28.37
65854;DHT22;52627;48.838;2.402;2022-07-05T14:54:14;30.17;28.34
65854;DHT22;52627;48.838;2.402;2022-07-05T14:56:41;30.17;28.32
65854;DHT22;52627;48.838;2.402;2022-07-05T14:59:09;30.17;28.32
65854;DHT22;52627;48.838;2.402;2022-07-05T15:01:36;30.17;28.24
65854;DHT22;52627;48.838;2.402;2022-07-05T15:04:04;30.18;28.25
65854;DHT22;52627;48.838;2.402;2022-07-05T15:06:32;30.22;28.26
65854;DHT22;52627;48.838;2.402;2022-07-05T15:09:00;30.28;28.29
65854;DHT22;52627;48.838;2.402;2022-07-05T15:11:27;30.29;28.22
65854;DHT22;52627;48.838;2.402;2022-07-05T15:13:56;30.23;28.30
65854;DHT22;52627;48.838;2.402;2022-07-05T15:16:24;30.24;28.28
65854;DHT22;52627;48.838;2.402;2022-07-05T15:18:51;30.26;28.32
65854;DHT22;52627;48.838;2.402;2022-07-05T15:21:20;30.24;28.29
65854;DHT22;52627;48.838;2.402;2022-07-05T15:23:47;30.18;28.27
65854;DHT22;52627;48.838;2.402;2022-07-05T15:26:35;30.16;28.27
65854;DHT22;52627;48.838;2.402;2022-07-05T15:29:03;30.15;28.13
65854;DHT22;52627;48.838;2.402;2022-07-05T15:31:34;30.09;28.12
65854;DHT22;52627;48.838;2.402;2022-07-05T15:34:04;30.09;28.20
65854;DHT22;52627;48.838;2.402;2022-07-05T15:36:32;30.07;28.19
65854;DHT22;52627;48.838;2.402;2022-07-05T15:39:01;30.09;28.31
65854;DHT22;52627;48.838;2.402;2022-07-05T15:41:30;30.13;28.33
65854;DHT22;52627;48.838;2.402;2022-07-05T15:43:59;30.17;28.28
65854;DHT22;52627;48.838;2.402;2022-07-05T15:46:27;30.19;28.18
65854;DHT22;52627;48.838;2.402;2022-07-05T15:49:15;30.16;28.02
65854;DHT22;52627;48.838;2.402;2022-07-05T15:51:48;30.12;28.13
65854;DHT22;52627;48.838;2.402;2022-07-05T15:54:16;30.08;28.16
65854;DHT22;52627;48.838;2.402;2022-07-05T15:56:50;29.99;28.23
65854;DHT22;52627;48.838;2.402;2022-07-05T15:59:26;29.85;28.29
65854;DHT22;52627;48.838;2.402;2022-07-05T16:01:54;29.70;28.31
65854;DHT22;52627;48.838;2.402;2022-07-05T16:04:22;29.59;28.41
65854;DHT22;52627;48.838;2.402;2022-07-05T16:06:56;29.54;28.51
65854;DHT22;52627;48.838;2.402;2022-07-05T16:09:25;29.49;28.60
65854;DHT22;52627;48.838;2.402;2022-07-05T16:11:53;29.44;28.63
65854;DHT22;52627;48.838;2.402;2022-07-05T16:14:21;29.36;28.63
65854;DHT22;52627;48.838;2.402;2022-07-05T16:16:48;29.26;28.66
65854;DHT22;52627;48.838;2.402;2022-07-05T16:19:16;29.17;28.77
65854;DHT22;52627;48.838;2.402;2022-07-05T16:21:44;29.07;28.71
65854;DHT22;52627;48.838;2.402;2022-07-05T16:24:17;28.96;28.77
65854;DHT22;52627;48.838;2.402;2022-07-05T16:26:46;28.86;28.81
65854;DHT22;52627;48.838;2.402;2022-07-05T16:29:14;28.79;28.77
65854;DHT22;52627;48.838;2.402;2022-07-05T16:31:41;28.68;28.84